Time;durP1;ratioP1;P1;durP2;ratioP2;P2;SDS_P1;SDS_P2;PMS_P1;PMS_P2;Temp;Humidity;BMP_temperature;BMP_pressure;BME280_temperature;BME280_humidity;BME280_pressure;Samples;Min_cycle;Max_cycle;Signal;HPM_P1;HPM_P2
2023/09/25 00:00:35;;;;;;;;;;;9.00;99.90;;;9.01;100.00;101472.78;4954400;28;20350;-81
2023/09/25 00:03:03;;;;;;;;;;;8.90;99.90;;;8.88;100.00;101468.81;4972643;28;19917;-81
2023/09/25 00:05:33;;;;;;;;;;;8.70;99.90;;;8.85;100.00;101473.81;4950866;28;20391;-80
2023/09/25 00:07:58;;;;;;;;;;;8.60;99.90;;;8.77;100.00;101472.00;4972621;28;19918;-81
2023/09/25 00:10:24;;;;;;;;;;;8.60;99.90;;;8.69;100.00;101472.09;4971714;28;19918;-81
2023/09/25 00:12:50;;;;;;;;;;;8.50;99.90;;;8.63;100.00;101465.50;4972571;28;19925;-81
2023/09/25 00:15:16;;;;;;;;;;;8.40;99.90;;;8.70;100.00;101452.84;4955233;28;19918;-81
2023/09/25 00:17:43;;;;;;;;;;;8.50;99.90;;;8.76;100.00;101430.38;4972988;28;19988;-81
2023/09/25 00:20:14;;;;;;;;;;;8.60;99.90;;;8.70;100.00;101422.94;4966739;28;19962;-81
2023/09/25 00:22:41;;;;;;;;;;;8.60;99.90;;;8.67;100.00;101419.75;4972562;28;19918;-81
2023/09/25 00:25:07;;;;;;;;;;;8.50;99.90;;;8.62;100.00;101418.44;4954656;28;19922;-81
2023/09/25 00:27:33;;;;;;;;;;;8.50;99.90;;;8.56;100.00;101408.28;4971902;28;19922;-81
2023/09/25 00:30:08;;;;;;;;;;;8.50;99.90;;;8.62;100.00;101409.41;4971973;28;19965;-81
2023/09/25 00:32:34;;;;;;;;;;;8.50;99.90;;;8.63;100.00;101402.94;4971617;28;19918;-80
2023/09/25 00:35:05;;;;;;;;;;;8.50;99.90;;;8.69;100.00;101391.31;4970031;28;19936;-80
2023/09/25 00:37:31;;;;;;;;;;;8.60;99.90;;;8.74;100.00;101383.44;4971190;28;19918;-81
2023/09/25 00:39:58;;;;;;;;;;;8.60;99.90;;;8.73;100.00;101376.31;4944649;28;19919;-81
2023/09/25 00:42:24;;;;;;;;;;;8.60;99.90;;;8.75;100.00;101376.13;4938843;29;19926;-81
2023/09/25 00:44:50;;;;;;;;;;;8.50;99.90;;;8.74;100.00;101377.16;4969340;28;19918;-81
2023/09/25 00:47:16;;;;;;;;;;;8.50;99.90;;;8.69;100.00;101364.09;4954121;28;19974;-81
2023/09/25 00:49:42;;;;;;;;;;;8.50;99.90;;;8.68;100.00;101370.56;4951229;28;19958;-81
2023/09/25 00:52:09;;;;;;;;;;;8.50;99.90;;;8.64;100.00;101374.72;4968999;28;19999;-80
2023/09/25 00:54:35;;;;;;;;;;;8.50;99.90;;;8.53;100.00;101367.03;4950160;28;20366;-81
2023/09/25 00:57:01;;;;;;;;;;;8.50;99.90;;;8.46;100.00;101356.81;4971932;28;20442;-81
2023/09/25 00:59:27;;;;;;;;;;;8.40;99.90;;;8.43;100.00;101367.25;4969485;28;19984;-81
2023/09/25 01:01:53;;;;;;;;;;;8.30;99.90;;;8.33;100.00;101381.94;4970854;28;19926;-81
2023/09/25 01:04:19;;;;;;;;;;;8.20;99.90;;;8.20;100.00;101392.59;4950306;28;20337;-81
2023/09/25 01:06:45;;;;;;;;;;;8.10;99.90;;;8.03;100.00;101397.31;4969224;28;19914;-81
2023/09/25 01:09:12;;;;;;;;;;;7.90;99.90;;;7.92;100.00;101404.84;4955283;28;19953;-81
2023/09/25 01:11:39;;;;;;;;;;;7.80;99.90;;;7.83;100.00;101405.13;4951501;28;20290;-81
2023/09/25 01:14:05;;;;;;;;;;;7.70;99.90;;;7.84;100.00;101398.66;4970780;28;19918;-81
2023/09/25 01:16:32;;;;;;;;;;;7.70;99.90;;;7.95;100.00;101390.06;4969426;28;19922;-81
2023/09/25 01:18:57;;;;;;;;;;;7.80;99.90;;;7.95;100.00;101372.91;4971256;28;20005;-81
2023/09/25 01:21:25;;;;;;;;;;;7.90;99.90;;;7.91;100.00;101367.84;4967060;28;20348;-81
2023/09/25 01:23:51;;;;;;;;;;;7.80;99.90;;;7.92;100.00;101357.84;4953942;28;20602;-81
2023/09/25 01:26:17;;;;;;;;;;;7.80;99.90;;;7.94;100.00;101346.75;4968608;28;20013;-81
2023/09/25 01:28:43;;;;;;;;;;;7.90;99.90;;;7.90;100.00;101336.25;4973198;28;20021;-81
2023/09/25 01:31:08;;;;;;;;;;;7.80;99.90;;;7.94;100.00;101335.91;4954220;28;19925;-81
2023/09/25 01:33:34;;;;;;;;;;;7.90;99.90;;;7.83;100.00;101319.00;4952022;28;19918;-82
2023/09/25 01:36:00;;;;;;;;;;;7.80;99.90;;;7.88;100.00;101332.88;4971440;28;19965;-82
2023/09/25 01:38:27;;;;;;;;;;;7.80;99.90;;;7.85;100.00;101310.69;4934849;29;19923;-81
2023/09/25 01:40:52;;;;;;;;;;;7.70;99.90;;;7.87;100.00;101309.47;4970989;28;19922;-81
2023/09/25 01:43:18;;;;;;;;;;;7.80;99.90;;;7.86;100.00;101310.50;4966425;28;20381;-81
2023/09/25 01:45:43;;;;;;;;;;;7.80;99.90;;;7.79;100.00;101295.97;4948298;28;20385;-81
2023/09/25 01:48:09;;;;;;;;;;;7.80;99.90;;;7.76;100.00;101283.56;4976614;28;20382;-81
2023/09/25 01:50:38;;;;;;;;;;;7.80;99.90;;;7.81;100.00;101291.19;4960247;28;20409;-82
2023/09/25 01:53:04;;;;;;;;;;;7.80;99.90;;;7.88;100.00;101270.41;4977223;28;19918;-82
2023/09/25 01:55:35;;;;;;;;;;;7.90;99.90;;;7.89;100.00;101260.41;4948472;29;19946;-82
2023/09/25 01:58:02;;;;;;;;;;;7.90;99.90;;;7.88;100.00;101256.00;4959127;28;19919;-81
2023/09/25 02:00:29;;;;;;;;;;;7.90;99.90;;;7.77;100.00;101252.66;4938473;28;19929;-82
2023/09/25 02:02:54;;;;;;;;;;;7.80;99.90;;;7.71;100.00;101249.88;4977668;28;19922;-82
2023/09/25 02:05:20;;;;;;;;;;;7.70;99.90;;;7.69;100.00;101255.47;4977420;28;19957;-82
2023/09/25 02:07:49;;;;;;;;;;;7.70;99.90;;;7.56;100.00;101245.22;4957429;28;19965;-82
2023/09/25 02:10:15;;;;;;;;;;;7.60;99.90;;;7.53;100.00;101264.59;4977991;28;19918;-81
2023/09/25 02:12:42;;;;;;;;;;;7.50;99.90;;;7.42;100.00;101267.72;4977435;28;20362;-81
2023/09/25 02:15:08;;;;;;;;;;;7.40;99.90;;;7.33;100.00;101258.81;4977777;28;19929;-81
2023/09/25 02:17:34;;;;;;;;;;;7.40;99.90;;;7.33;100.00;101272.38;4960053;28;20001;-82
2023/09/25 02:20:17;;;;;;;;;;;7.30;99.90;;;7.22;100.00;101261.91;4947399;28;19963;-82
2023/09/25 02:22:44;;;;;;;;;;;7.20;99.90;;;7.22;100.00;101272.78;4977549;28;19972;-82
2023/09/25 02:25:10;;;;;;;;;;;7.20;99.90;;;7.18;100.00;101267.72;4977645;28;19929;-81
2023/09/25 02:27:39;;;;;;;;;;;7.20;99.90;;;7.12;100.00;101256.72;4959453;28;19918;-81
2023/09/25 02:30:08;;;;;;;;;;;7.10;99.90;;;7.15;100.00;101257.22;4977591;28;19935;-82
2023/09/25 02:32:34;;;;;;;;;;;7.20;99.90;;;7.23;100.00;101253.59;4959614;28;19918;-82
2023/09/25 02:34:59;;;;;;;;;;;7.30;99.90;;;7.27;100.00;101233.22;4977623;28;20334;-82
2023/09/25 02:37:25;;;;;;;;;;;7.30;99.90;;;7.25;100.00;101227.13;4948976;28;19918;-81
2023/09/25 02:39:51;;;;;;;;;;;7.30;99.90;;;7.22;100.00;101226.63;4977570;28;19918;-82
2023/09/25 02:42:17;;;;;;;;;;;7.20;99.90;;;7.22;100.00;101219.34;4977519;28;19918;-82
2023/09/25 02:44:43;;;;;;;;;;;7.20;99.90;;;7.14;100.00;101208.53;4960122;28;20263;-82
2023/09/25 02:47:09;;;;;;;;;;;7.20;99.90;;;7.09;100.00;101225.38;4976056;28;20008;-82
2023/09/25 02:49:34;;;;;;;;;;;7.10;99.90;;;7.05;100.00;101224.88;4977228;28;19918;-82
2023/09/25 02:52:00;;;;;;;;;;;7.00;99.90;;;7.00;100.00;101227.28;4959847;28;20373;-81
2023/09/25 02:54:26;;;;;;;;;;;7.00;99.90;;;7.00;100.00;101221.88;4977739;28;20286;-81
2023/09/25 02:56:51;;;;;;;;;;;6.90;99.90;;;6.89;100.00;101225.81;4976729;28;20294;-82
2023/09/25 02:59:17;;;;;;;;;;;6.90;99.90;;;6.89;100.00;101230.38;4973291;28;19996;-82
2023/09/25 03:01:43;;;;;;;;;;;6.80;99.90;;;6.83;100.00;101226.53;4975476;28;19918;-82
2023/09/25 03:04:08;;;;;;;;;;;6.80;99.90;;;6.79;100.00;101214.38;4956865;28;19918;-81
2023/09/25 03:06:34;;;;;;;;;;;6.80;99.90;;;6.74;100.00;101214.88;4957091;28;19914;-80
2023/09/25 03:08:59;;;;;;;;;;;6.80;99.90;;;6.88;100.00;101228.69;4974256;28;19918;-81
2023/09/25 03:11:26;;;;;;;;;;;6.80;99.90;;;6.96;100.00;101219.69;4956325;28;19921;-81
2023/09/25 03:13:52;;;;;;;;;;;6.90;99.90;;;7.03;100.00;101216.06;4973771;28;19913;-81
2023/09/25 03:16:18;;;;;;;;;;;7.00;99.90;;;7.06;100.00;101204.03;4929537;28;19922;-82
2023/09/25 03:18:44;;;;;;;;;;;7.10;99.90;;;7.18;100.00;101201.75;4950270;28;19920;-81
2023/09/25 03:21:11;;;;;;;;;;;7.20;99.90;;;7.18;100.00;101196.31;4974096;28;19917;-81
2023/09/25 03:23:38;;;;;;;;;;;7.20;99.90;;;7.18;100.00;101199.88;4973718;28;19933;-81
2023/09/25 03:26:03;;;;;;;;;;;7.20;99.90;;;7.14;100.00;101194.97;4973633;28;19914;-81
2023/09/25 03:28:29;;;;;;;;;;;7.20;99.90;;;7.04;100.00;101201.47;4956276;28;20401;-81
2023/09/25 03:30:55;;;;;;;;;;;7.10;99.90;;;7.17;100.00;101197.34;4973206;28;20294;-82
2023/09/25 03:33:27;;;;;;;;;;;7.10;99.90;;;7.30;100.00;101189.44;4956062;28;19924;-82
2023/09/25 03:35:53;;;;;;;;;;;7.30;99.90;;;7.36;100.00;101181.56;4956053;28;19918;-82
2023/09/25 03:38:19;;;;;;;;;;;7.40;99.90;;;7.40;100.00;101178.31;4974619;28;20366;-82
2023/09/25 03:40:45;;;;;;;;;;;7.40;99.90;;;7.43;100.00;101179.84;4974081;28;19942;-82
2023/09/25 03:43:11;;;;;;;;;;;7.40;99.90;;;7.41;100.00;101174.59;4973922;28;19933;-82
2023/09/25 03:45:36;;;;;;;;;;;7.50;99.90;;;7.43;100.00;101174.41;4955931;28;19917;-82
2023/09/25 03:48:02;;;;;;;;;;;7.50;99.90;;;7.46;100.00;101146.91;4971716;28;20374;-82
2023/09/25 03:50:28;;;;;;;;;;;7.50;99.90;;;7.50;100.00;101167.22;4965099;28;20378;-81
2023/09/25 03:52:57;;;;;;;;;;;7.50;99.90;;;7.43;100.00;101172.53;4973777;28;19925;-82
2023/09/25 03:55:24;;;;;;;;;;;7.40;99.90;;;7.39;100.00;101183.91;4957811;28;20424;-81
2023/09/25 03:57:50;;;;;;;;;;;7.30;99.90;;;7.51;100.00;101170.75;4970844;28;20009;-82
2023/09/25 04:00:16;;;;;;;;;;;7.30;99.90;;;7.59;100.00;101160.66;4973872;28;19926;-81
2023/09/25 04:02:42;;;;;;;;;;;7.40;99.90;;;7.58;100.00;101161.69;4972903;28;19922;-83
2023/09/25 04:05:10;;;;;;;;;;;7.30;99.90;;;7.49;100.00;101177.22;4973355;28;20012;-82
2023/09/25 04:07:38;;;;;;;;;;;7.30;99.90;;;7.49;100.00;101160.09;4969461;28;19918;-81
2023/09/25 04:10:07;;;;;;;;;;;7.30;99.90;;;7.49;100.00;101169.06;4971405;28;19924;-80
2023/09/25 04:12:34;;;;;;;;;;;7.30;99.90;;;7.51;100.00;101173.47;4971980;28;19930;-82
2023/09/25 04:15:01;;;;;;;;;;;7.40;99.90;;;7.52;100.00;101181.44;4972682;28;19925;-83
2023/09/25 04:17:27;;;;;;;;;;;7.40;99.90;;;7.36;100.00;101187.88;4974174;28;19918;-83
2023/09/25 04:19:53;;;;;;;;;;;7.20;99.90;;;7.27;100.00;101195.22;4969222;28;20406;-84
2023/09/25 04:22:20;;;;;;;;;;;7.20;99.90;;;7.20;100.00;101205.94;4942826;28;19918;-82
2023/09/25 04:24:46;;;;;;;;;;;7.00;99.90;;;7.09;100.00;101216.38;4972616;28;19918;-86
2023/09/25 04:27:12;;;;;;;;;;;6.90;99.90;;;6.91;100.00;101223.78;4972790;28;19918;-90
2023/09/25 04:29:38;;;;;;;;;;;6.80;99.90;;;6.76;100.00;101223.69;4971315;28;20108;-87
2023/09/25 04:32:06;;;;;;;;;;;6.70;99.90;;;6.69;100.00;101238.13;4973513;28;20004;-89
2023/09/25 04:34:31;;;;;;;;;;;6.60;99.90;;;6.62;100.00;101246.13;4973571;28;20278;-89
2023/09/25 04:36:58;;;;;;;;;;;6.50;99.90;;;6.78;100.00;101238.94;4966446;28;19922;-88
2023/09/25 04:39:24;;;;;;;;;;;6.60;99.90;;;6.81;100.00;101228.59;4973587;28;19918;-89
2023/09/25 04:41:53;;;;;;;;;;;6.70;99.90;;;6.85;100.00;101220.94;4968443;28;20329;-87
2023/09/25 04:44:19;;;;;;;;;;;6.70;99.90;;;6.91;100.00;101218.34;4972719;28;19922;-87
2023/09/25 04:46:45;;;;;;;;;;;6.70;99.90;;;6.96;100.00;101215.13;4973821;28;19942;-89
2023/09/25 04:49:12;;;;;;;;;;;6.80;99.90;;;7.11;100.00;101203.47;4974268;28;19929;-88
2023/09/25 04:51:38;;;;;;;;;;;6.90;99.90;;;7.21;100.00;101193.25;4971041;28;20043;-89
2023/09/25 04:54:05;;;;;;;;;;;7.10;99.90;;;7.29;100.00;101200.44;4974709;28;19918;-89
2023/09/25 04:56:31;;;;;;;;;;;7.10;99.90;;;7.34;100.00;101201.59;4954716;28;20008;-89
2023/09/25 04:58:58;;;;;;;;;;;7.20;99.90;;;7.33;100.00;101210.78;4969354;28;19965;-88
2023/09/25 05:01:24;;;;;;;;;;;7.30;99.90;;;7.41;100.00;101209.00;4972903;28;19918;-88
2023/09/25 05:03:49;;;;;;;;;;;7.30;99.90;;;7.61;100.00;101212.91;4965184;28;19918;-86
2023/09/25 05:06:15;;;;;;;;;;;7.50;99.90;;;7.59;100.00;101225.00;4972627;28;19918;-86
2023/09/25 05:08:41;;;;;;;;;;;7.50;99.90;;;7.62;100.00;101238.22;4974335;28;19965;-87
2023/09/25 05:11:07;;;;;;;;;;;7.50;99.90;;;7.61;100.00;101239.25;4952220;28;19941;-86
2023/09/25 05:13:33;;;;;;;;;;;7.50;99.90;;;7.54;100.00;101246.41;4952426;28;19972;-87
2023/09/25 05:16:00;;;;;;;;;;;7.40;99.90;;;7.47;100.00;101260.72;4956870;28;20382;-86
2023/09/25 05:18:29;;;;;;;;;;;7.30;99.90;;;7.43;100.00;101261.28;4974449;28;19918;-87
2023/09/25 05:20:57;;;;;;;;;;;7.20;99.90;;;7.35;100.00;101259.47;4956068;28;20389;-86
2023/09/25 05:23:23;;;;;;;;;;;7.10;99.90;;;7.28;100.00;101269.34;4951988;28;19922;-86
2023/09/25 05:25:48;;;;;;;;;;;7.10;99.90;;;7.13;100.00;101258.41;4954947;28;19914;-86
2023/09/25 05:28:14;;;;;;;;;;;7.00;99.90;;;7.08;100.00;101282.53;4957919;28;19953;-87
2023/09/25 05:30:40;;;;;;;;;;;6.90;99.90;;;6.99;100.00;101276.28;4971066;28;19918;-81
2023/09/25 05:33:05;;;;;;;;;;;6.90;99.90;;;7.10;100.00;101275.91;4968539;28;19914;-81
2023/09/25 05:35:31;;;;;;;;;;;6.90;99.90;;;7.18;100.00;101269.59;4968471;28;20008;-81
2023/09/25 05:37:57;;;;;;;;;;;7.00;99.90;;;7.24;100.00;101255.28;4952028;28;19918;-79
2023/09/25 05:40:22;;;;;;;;;;;7.10;99.90;;;7.43;100.00;101262.13;4967807;28;19918;-79
2023/09/25 05:42:49;;;;;;;;;;;7.20;99.90;;;7.50;100.00;101245.94;4944106;28;19918;-79
2023/09/25 05:45:16;;;;;;;;;;;7.30;99.90;;;7.62;100.00;101249.91;4971328;28;20400;-79
2023/09/25 05:47:43;;;;;;;;;;;7.40;99.90;;;7.67;100.00;101248.50;4944858;28;20363;-80
2023/09/25 05:50:09;;;;;;;;;;;7.50;99.90;;;7.82;100.00;101237.69;4943321;28;19962;-80
2023/09/25 05:52:36;;;;;;;;;;;7.60;99.90;;;7.96;100.00;101238.78;4954137;28;19960;-80
2023/09/25 05:55:04;;;;;;;;;;;7.70;99.90;;;8.05;100.00;101218.63;4971394;28;19922;-80
2023/09/25 05:57:30;;;;;;;;;;;7.80;99.90;;;8.21;100.00;101218.44;4974976;28;19965;-78
2023/09/25 05:59:57;;;;;;;;;;;8.00;99.90;;;8.34;100.00;101206.06;4973175;28;20074;-80
2023/09/25 06:02:22;;;;;;;;;;;8.10;99.90;;;8.49;100.00;101197.91;4971812;28;19922;-80
2023/09/25 06:04:48;;;;;;;;;;;8.20;99.90;;;8.64;100.00;101200.63;4971955;28;19929;-80
2023/09/25 06:07:14;;;;;;;;;;;8.40;99.90;;;8.79;100.00;101186.97;4969923;28;19925;-80
2023/09/25 06:09:40;;;;;;;;;;;8.50;99.90;;;8.98;100.00;101192.84;4971205;28;20390;-80
2023/09/25 06:12:05;;;;;;;;;;;8.70;99.90;;;9.17;100.00;101192.22;4971765;28;20290;-80
2023/09/25 06:14:31;;;;;;;;;;;8.90;99.90;;;9.43;100.00;101192.66;4970773;28;19925;-79
2023/09/25 06:16:59;;;;;;;;;;;9.10;99.90;;;9.57;100.00;101193.59;4971584;28;20345;-80
2023/09/25 06:19:25;;;;;;;;;;;9.30;99.90;;;9.82;100.00;101204.94;4971382;28;19922;-80
2023/09/25 06:21:51;;;;;;;;;;;9.50;99.90;;;10.01;100.00;101210.69;4970859;28;20308;-81
2023/09/25 06:24:17;;;;;;;;;;;9.70;99.90;;;10.15;100.00;101215.22;4971172;28;19918;-79
2023/09/25 06:26:46;;;;;;;;;;;9.80;99.90;;;10.33;100.00;101220.13;4971653;28;19925;-80
2023/09/25 06:29:13;;;;;;;;;;;10.00;99.90;;;10.48;100.00;101230.13;4954106;28;19965;-82
2023/09/25 06:31:39;;;;;;;;;;;10.10;99.90;;;10.60;100.00;101246.72;4971326;28;19918;-80
2023/09/25 06:34:07;;;;;;;;;;;10.20;99.90;;;10.69;100.00;101261.91;4975625;28;20000;-80
2023/09/25 06:36:34;;;;;;;;;;;10.30;99.90;;;10.79;100.00;101281.47;4970937;28;19929;-80
2023/09/25 06:39:00;;;;;;;;;;;10.40;99.90;;;10.89;100.00;101302.09;4975381;28;19918;-80
2023/09/25 06:41:26;;;;;;;;;;;10.40;99.90;;;10.91;100.00;101308.22;4956826;28;19922;-80
2023/09/25 06:43:52;;;;;;;;;;;10.50;99.90;;;11.07;100.00;101337.88;4974232;28;19925;-81
2023/09/25 06:46:17;;;;;;;;;;;10.60;99.90;;;11.15;100.00;101363.34;4985149;28;19913;-81
2023/09/25 06:48:43;;;;;;;;;;;10.70;99.90;;;11.24;100.00;101389.44;4940793;28;19919;-80
2023/09/25 06:51:10;;;;;;;;;;;10.80;99.90;;;11.31;100.00;101423.06;4974893;28;19918;-81
2023/09/25 06:53:35;;;;;;;;;;;10.90;99.90;;;11.49;100.00;101446.28;4974268;28;19926;-81
2023/09/25 06:56:01;;;;;;;;;;;11.00;99.90;;;11.71;100.00;101471.59;4975023;28;19917;-80
2023/09/25 06:58:26;;;;;;;;;;;11.20;99.90;;;11.90;100.00;101483.63;4974577;28;19923;-80
2023/09/25 07:00:52;;;;;;;;;;;11.40;99.90;;;12.05;100.00;101499.06;4973094;28;20020;-81
2023/09/25 07:03:18;;;;;;;;;;;11.60;99.90;;;12.23;100.00;101545.00;4974286;28;19969;-81
2023/09/25 07:05:44;;;;;;;;;;;11.70;99.90;;;12.33;100.00;101545.47;4974108;28;19957;-81
2023/09/25 07:08:11;;;;;;;;;;;11.90;99.90;;;12.49;100.00;101566.13;4956854;28;19921;-81
2023/09/25 07:10:37;;;;;;;;;;;12.10;99.90;;;12.52;100.00;101575.78;4974285;28;19925;-80
2023/09/25 07:13:03;;;;;;;;;;;12.20;99.90;;;12.77;100.00;101603.44;4973491;28;20440;-81
2023/09/25 07:15:30;;;;;;;;;;;12.30;99.90;;;12.89;100.00;101620.09;4957197;28;20008;-81
2023/09/25 07:17:56;;;;;;;;;;;12.50;99.90;;;13.00;100.00;101626.00;4973182;28;19925;-81
2023/09/25 07:20:21;;;;;;;;;;;12.60;99.90;;;13.14;100.00;101632.34;4972407;28;19918;-81
2023/09/25 07:22:47;;;;;;;;;;;12.80;99.90;;;13.31;100.00;101639.09;4972170;28;19922;-82
2023/09/25 07:25:14;;;;;;;;;;;13.00;99.90;;;13.49;100.00;101637.63;4972312;28;19924;-82
2023/09/25 07:27:40;;;;;;;;;;;13.20;99.90;;;13.66;100.00;101658.06;4971215;28;20020;-82
2023/09/25 07:30:08;;;;;;;;;;;13.40;99.90;;;13.95;100.00;101671.53;4972127;28;20482;-82
2023/09/25 07:32:33;;;;;;;;;;;13.60;99.90;;;14.03;100.00;101681.41;4971372;28;20366;-81
2023/09/25 07:34:59;;;;;;;;;;;13.90;99.90;;;14.17;100.00;101690.44;4942524;29;19927;-83
2023/09/25 07:37:25;;;;;;;;;;;14.10;99.90;;;14.37;100.00;101696.72;4948794;28;19922;-82
2023/09/25 07:39:51;;;;;;;;;;;14.30;99.90;;;14.58;100.00;101713.09;4970007;28;20397;-84
2023/09/25 07:42:17;;;;;;;;;;;14.40;99.90;;;14.63;100.00;101716.06;4969515;28;20044;-82
2023/09/25 07:44:43;;;;;;;;;;;14.60;99.90;;;14.74;100.00;101707.16;4951719;28;19961;-82
2023/09/25 07:47:12;;;;;;;;;;;14.80;99.90;;;14.82;100.00;101717.88;4970009;28;20636;-82
2023/09/25 07:49:41;;;;;;;;;;;14.80;99.90;;;15.00;100.00;101715.50;4951631;28;19922;-79
2023/09/25 07:52:26;;;;;;;;;;;15.00;99.90;;;14.90;100.00;101711.28;4969590;28;19981;-82
2023/09/25 07:54:51;;;;;;;;;;;15.00;99.90;;;15.14;100.00;101716.25;4969335;28;19922;-82
2023/09/25 07:57:19;;;;;;;;;;;15.20;99.90;;;15.26;100.00;101725.47;4971342;28;19922;-81
2023/09/25 07:59:46;;;;;;;;;;;15.20;99.90;;;15.29;100.00;101719.50;4953367;28;19964;-83
2023/09/25 08:02:17;;;;;;;;;;;15.30;99.90;;;15.32;100.00;101723.72;4971307;28;20155;-81
2023/09/25 08:04:44;;;;;;;;;;;15.40;99.90;;;15.34;100.00;101714.19;4971806;28;19988;-85
2023/09/25 08:07:11;;;;;;;;;;;15.50;99.90;;;15.60;100.00;101719.72;4971980;28;20410;-83
2023/09/25 08:09:37;;;;;;;;;;;15.60;99.90;;;15.66;100.00;101705.91;4970515;28;19946;-82
2023/09/25 08:12:03;;;;;;;;;;;15.70;99.90;;;15.77;100.00;101722.72;4971129;28;20272;-80
2023/09/25 08:14:29;;;;;;;;;;;15.80;99.90;;;15.73;100.00;101724.25;4947125;28;19918;-82
2023/09/25 08:16:54;;;;;;;;;;;15.80;99.90;;;15.81;100.00;101723.97;4949393;28;19985;-80
2023/09/25 08:19:22;;;;;;;;;;;15.90;99.90;;;15.95;100.00;101722.81;4970555;28;19964;-79
2023/09/25 08:21:53;;;;;;;;;;;16.00;99.90;;;16.06;100.00;101725.88;4969667;28;19939;-83
2023/09/25 08:24:19;;;;;;;;;;;16.10;99.90;;;16.21;100.00;101725.50;4953078;28;19929;-83
2023/09/25 08:26:47;;;;;;;;;;;16.30;99.90;;;16.43;100.00;101725.88;4976316;28;19914;-84
2023/09/25 08:29:15;;;;;;;;;;;16.40;99.90;;;16.50;100.00;101718.41;4966656;28;20009;-80
2023/09/25 08:31:43;;;;;;;;;;;16.60;99.90;;;16.38;100.00;101731.22;4934121;28;19922;-84
2023/09/25 08:34:10;;;;;;;;;;;16.60;99.90;;;16.64;100.00;101741.09;4970350;28;19914;-82
2023/09/25 08:36:36;;;;;;;;;;;16.70;99.90;;;16.89;100.00;101728.28;4952757;28;20609;-83
2023/09/25 08:39:02;;;;;;;;;;;16.90;99.90;;;16.91;100.00;101728.88;4937563;28;19925;-83
2023/09/25 08:41:29;;;;;;;;;;;17.10;99.90;;;17.01;100.00;101743.00;4970468;28;19918;-82
2023/09/25 08:43:55;;;;;;;;;;;17.20;99.90;;;17.04;100.00;101731.50;4945579;28;19941;-79
2023/09/25 08:46:22;;;;;;;;;;;17.20;99.90;;;17.33;100.00;101728.09;4966692;28;19918;-84
2023/09/25 08:48:52;;;;;;;;;;;17.40;99.90;;;17.58;100.00;101732.56;4964596;28;20460;-82
2023/09/25 08:51:20;;;;;;;;;;;17.60;99.90;;;17.36;100.00;101731.22;4968946;28;20005;-81
2023/09/25 08:53:46;;;;;;;;;;;17.60;99.90;;;17.37;100.00;101732.03;4973526;28;20359;-82
2023/09/25 08:56:15;;;;;;;;;;;17.60;99.90;;;17.36;100.00;101722.94;4928097;28;19978;-81
2023/09/25 08:58:44;;;;;;;;;;;17.60;99.90;;;17.88;100.00;101732.50;4942485;28;20385;-80
2023/09/25 09:01:10;;;;;;;;;;;;;;;18.12;100.00;101727.00;4955569;28;19918;-81
2023/09/25 09:03:36;;;;;;;;;;;17.80;99.90;;;18.26;100.00;101722.88;4972017;28;20289;-80
2023/09/25 09:06:02;;;;;;;;;;;18.40;99.90;;;18.29;100.00;101727.09;4972875;28;20008;-79
2023/09/25 09:08:29;;;;;;;;;;;18.40;99.90;;;18.33;100.00;101728.28;4971800;28;20362;-80
2023/09/25 09:10:55;;;;;;;;;;;18.50;99.90;;;18.36;100.00;101730.56;4972793;28;19946;-81
2023/09/25 09:13:23;;;;;;;;;;;18.50;99.90;;;18.26;100.00;101722.06;4972418;28;20387;-81
2023/09/25 09:15:52;;;;;;;;;;;18.50;99.90;;;18.58;100.00;101718.03;4972278;28;19945;-79
2023/09/25 09:18:21;;;;;;;;;;;18.60;99.90;;;18.85;100.00;101720.22;4972065;28;19918;-80
2023/09/25 09:20:46;;;;;;;;;;;18.80;99.90;;;18.66;100.00;101714.88;4970919;28;19922;-79
2023/09/25 09:23:12;;;;;;;;;;;18.90;99.90;;;18.68;100.00;101729.28;4972440;28;19976;-80
2023/09/25 09:25:38;;;;;;;;;;;18.90;99.90;;;18.85;100.00;101728.50;4972028;28;20004;-81
2023/09/25 09:28:05;;;;;;;;;;;19.00;99.90;;;18.79;100.00;101725.63;4962423;28;19917;-83
2023/09/25 09:30:31;;;;;;;;;;;19.10;99.90;;;18.90;100.00;101721.13;4972442;28;20306;-81
2023/09/25 09:32:57;;;;;;;;;;;19.20;99.90;;;18.90;97.34;101723.91;4973137;28;20024;-83
2023/09/25 09:35:26;;;;;;;;;;;19.20;99.50;;;19.02;100.00;101725.81;4972512;28;19918;-80
2023/09/25 09:37:54;;;;;;;;;;;19.20;99.90;;;19.10;97.67;101715.19;4972098;28;19921;-80
2023/09/25 09:40:25;;;;;;;;;;;19.40;99.30;;;19.60;100.00;101723.78;4955604;28;19918;-83
2023/09/25 09:42:54;;;;;;;;;;;19.60;99.90;;;19.67;100.00;101716.16;4968878;28;20869;-81
2023/09/25 09:45:21;;;;;;;;;;;20.00;99.60;;;19.64;91.31;101713.91;4944090;28;19924;-81
2023/09/25 09:47:48;;;;;;;;;;;20.20;95.90;;;19.79;89.07;101712.44;4972218;28;19922;-81
2023/09/25 09:50:17;;;;;;;;;;;;;;;20.37;87.24;101704.72;4971999;28;19925;-81
2023/09/25 09:52:44;;;;;;;;;;;;;;;20.66;84.99;101709.19;4938983;29;19925;-79
2023/09/25 09:55:12;;;;;;;;;;;;;;;21.01;77.66;101704.34;4971042;28;20022;-79
2023/09/25 09:57:39;;;;;;;;;;;;;;;20.98;76.34;101702.94;4971140;28;19922;-80
2023/09/25 10:00:08;;;;;;;;;;;;;;;21.73;73.12;101701.34;4972191;28;20267;-78
2023/09/25 10:02:38;;;;;;;;;;;;;;;21.86;69.52;101689.78;4971341;28;20057;-78
2023/09/25 10:05:05;;;;;;;;;;;;;;;21.82;63.77;101678.38;4971357;28;19918;-78
2023/09/25 10:07:31;;;;;;;;;;;;;;;22.20;63.90;101689.41;4956139;28;19914;-80
2023/09/25 10:10:04;;;;;;;;;;;;;;;22.80;63.26;101686.31;4958351;28;20274;-80
2023/09/25 10:12:37;;;;;;;;;;;;;;;23.88;59.96;101683.84;4975736;28;19925;-80
2023/09/25 10:15:04;;;;;;;;;;;;;;;23.68;53.82;101663.25;4975865;28;19926;-79
2023/09/25 10:17:41;;;;;;;;;;;;;;;23.48;53.83;101672.50;4975471;28;19921;-79
2023/09/25 10:20:26;;;;;;;;;;;;;;;23.11;55.73;101675.25;4954538;28;19921;-78
2023/09/25 10:22:52;;;;;;;;;;;;;;;22.93;54.47;101673.81;4970711;28;19924;-79
2023/09/25 10:25:19;;;;;;;;;;;;;;;24.19;55.37;101681.84;4975154;28;20266;-79
2023/09/25 10:27:45;;;;;;;;;;;;;;;24.51;60.66;101688.09;4976552;28;20401;-78
2023/09/25 10:30:14;;;;;;;;;;;;;;;24.45;58.26;101690.09;4973559;28;20028;-82
2023/09/25 10:32:41;;;;;;;;;;;;;;;25.21;51.61;101663.97;4975333;28;20004;-82
2023/09/25 10:35:26;;;;;;;;;;;;;;;25.19;48.63;101653.09;4975506;28;19917;-82
2023/09/25 10:38:11;;;;;;;;;;;;;;;26.04;44.94;101655.59;4976720;28;19918;-84
2023/09/25 10:40:37;;;;;;;;;;;;;;;26.44;42.40;101640.59;4975215;28;19918;-85
2023/09/25 10:43:03;;;;;;;;;;;;;;;27.26;40.30;101638.47;4976685;28;20061;-79
2023/09/25 10:45:30;;;;;;;;;;;;;;;27.33;40.04;101641.75;4975181;28;19941;-81
2023/09/25 10:47:56;;;;;;;;;;;;;;;27.33;39.89;101647.34;4957972;28;19980;-81
2023/09/25 10:50:22;;;;;;;;;;;;;;;26.64;41.94;101650.66;4973807;28;20370;-81
2023/09/25 10:52:48;;;;;;;;;;;;;;;25.04;43.19;101645.66;4972765;28;20009;-82
2023/09/25 10:55:14;;;;;;;;;;;;;;;24.58;45.00;101651.53;4945712;28;19961;-81
2023/09/25 10:57:40;;;;;;;;;;;;;;;24.12;47.71;101670.97;4957284;28;19937;-77
2023/09/25 11:00:14;;;;;;;;;;;;;;;24.43;49.30;101664.44;4974631;28;20042;-78
2023/09/25 11:02:42;;;;;;;;;;;;;;;24.47;47.81;101661.91;4945688;28;20004;-77
2023/09/25 11:05:10;;;;;;;;;;;;;;;24.59;48.17;101650.41;4945219;28;19918;-78
2023/09/25 11:07:36;;;;;;;;;;;;;;;25.86;47.78;101651.63;4974033;28;19949;-79
2023/09/25 11:10:03;;;;;;;;;;;;;;;26.08;42.09;101623.13;4974710;28;19929;-79
2023/09/25 11:12:30;;;;;;;;;;;;;;;26.69;42.34;101631.81;4973798;28;20008;-81
2023/09/25 11:14:57;;;;;;;;;;;;;;;27.13;40.30;101623.31;4974195;28;20390;-82
2023/09/25 11:17:23;;;;;;;;;;;;;;;25.60;41.38;101621.16;4974208;28;20400;-81
2023/09/25 11:19:51;;;;;;;;;;;;;;;25.43;41.68;101614.03;4971918;28;19918;-80